Time;durP1;ratioP1;P1;durP2;ratioP2;P2;SDS_P1;SDS_P2;PMS_P1;PMS_P2;Temp;Humidity;BMP_temperature;BMP_pressure;BME280_temperature;BME280_humidity;BME280_pressure;Samples;Min_cycle;Max_cycle;Signal;HPM_P1;HPM_P2
2022/03/12 00:00:50;;;;;;;8.50;6.28;;;6.70;52.40;;;;;;5047654;28;20064;-71
2022/03/12 00:03:16;;;;;;;10.63;6.30;;;6.70;52.20;;;;;;5066129;28;20500;-71
2022/03/12 00:06:05;;;;;;;8.35;6.78;;;6.70;52.10;;;;;;5064348;28;20063;-71
2022/03/12 00:08:40;;;;;;;8.68;6.40;;;6.70;51.10;;;;;;5050678;28;20121;-71
2022/03/12 00:11:06;;;;;;;9.18;6.22;;;6.70;52.00;;;;;;5053523;28;20037;-71
2022/03/12 00:13:32;;;;;;;9.18;6.82;;;6.70;52.10;;;;;;5026709;28;20042;-72
2022/03/12 00:15:58;;;;;;;11.40;6.38;;;6.70;52.30;;;;;;5051171;28;20408;-72
2022/03/12 00:18:25;;;;;;;8.70;6.35;;;6.70;51.20;;;;;;5068320;28;20028;-72
2022/03/12 00:20:50;;;;;;;8.85;6.65;;;6.70;51.70;;;;;;5053265;28;20063;-72
2022/03/12 00:23:20;;;;;;;9.57;6.43;;;6.70;52.00;;;;;;5053335;28;22012;-71
2022/03/12 00:25:48;;;;;;;11.73;6.88;;;6.70;52.10;;;;;;5050694;28;20039;-71
2022/03/12 00:28:18;;;;;;;10.43;6.75;;;6.60;52.30;;;;;;5051396;28;20067;-70
2022/03/12 00:30:46;;;;;;;9.93;6.55;;;6.60;53.00;;;;;;5024332;28;20052;-70
2022/03/12 00:33:12;;;;;;;10.60;6.00;;;6.60;53.20;;;;;;5050925;28;20032;-71
2022/03/12 00:35:38;;;;;;;8.88;6.20;;;6.50;52.90;;;;;;5047036;28;20074;-70
2022/03/12 00:38:04;;;;;;;10.60;6.40;;;6.50;52.60;;;;;;5048780;28;20063;-69
2022/03/12 00:40:30;;;;;;;11.63;6.38;;;6.50;52.80;;;;;;5068240;28;20658;-71
2022/03/12 00:42:56;;;;;;;9.77;6.10;;;6.50;53.10;;;;;;5047853;28;20060;-71
2022/03/12 00:45:22;;;;;;;11.65;6.32;;;6.50;52.40;;;;;;5049631;28;20639;-71
2022/03/12 00:47:50;;;;;;;10.43;6.15;;;6.60;52.10;;;;;;5055087;28;20032;-71
2022/03/12 00:50:16;;;;;;;9.07;6.78;;;6.60;52.20;;;;;;5054738;28;20055;-71
2022/03/12 00:52:42;;;;;;;10.82;6.30;;;6.70;52.10;;;;;;5048804;28;20044;-71
2022/03/12 00:55:08;;;;;;;9.15;6.10;;;6.70;52.00;;;;;;5054249;28;20052;-72
2022/03/12 00:57:35;;;;;;;8.23;6.53;;;6.70;52.10;;;;;;5056860;28;20044;-72
2022/03/12 01:00:01;;;;;;;9.20;6.10;;;6.70;52.00;;;;;;5041671;28;20037;-71
2022/03/12 01:02:27;;;;;;;12.18;6.05;;;6.70;51.80;;;;;;5051962;28;20504;-71
2022/03/12 01:04:52;;;;;;;9.80;5.90;;;6.80;51.40;;;;;;5054675;28;20036;-70
2022/03/12 01:07:18;;;;;;;8.93;6.25;;;6.80;51.60;;;;;;5053267;28;20107;-71
2022/03/12 01:09:44;;;;;;;9.18;6.15;;;6.80;51.30;;;;;;5052524;28;20404;-71
2022/03/12 01:12:11;;;;;;;9.43;6.78;;;6.80;51.90;;;;;;5037912;28;20076;-71
2022/03/12 01:14:41;;;;;;;11.68;7.00;;;6.80;51.50;;;;;;5047847;28;20127;-72
2022/03/12 01:17:07;;;;;;;11.02;6.70;;;6.80;51.40;;;;;;5050086;28;20492;-72
2022/03/12 01:19:34;;;;;;;8.38;6.30;;;6.80;51.50;;;;;;5052040;28;20045;-71
2022/03/12 01:22:02;;;;;;;11.13;6.38;;;6.80;51.60;;;;;;5056699;28;20037;-72
2022/03/12 01:24:28;;;;;;;10.00;6.22;;;6.80;51.20;;;;;;5053637;28;20588;-71
2022/03/12 01:26:55;;;;;;;10.90;6.63;;;6.80;51.20;;;;;;5051853;28;20051;-71
2022/03/12 01:29:21;;;;;;;9.20;6.72;;;6.80;51.60;;;;;;5053091;28;20083;-71
2022/03/12 01:31:46;;;;;;;11.10;6.47;;;6.80;51.90;;;;;;5048781;28;20084;-71
2022/03/12 01:34:12;;;;;;;9.18;6.53;;;6.80;51.50;;;;;;5048520;28;20044;-72
2022/03/12 01:36:37;;;;;;;11.02;6.53;;;6.80;51.30;;;;;;5053017;28;20055;-72
2022/03/12 01:39:03;;;;;;;9.13;6.82;;;6.80;51.40;;;;;;5070393;28;20036;-71
2022/03/12 01:41:32;;;;;;;9.77;6.38;;;6.90;51.60;;;;;;5066744;28;20045;-71
2022/03/12 01:44:00;;;;;;;10.43;6.90;;;6.90;51.50;;;;;;5051916;28;20123;-72
2022/03/12 01:46:32;;;;;;;8.88;6.30;;;6.90;51.60;;;;;;5049435;28;20048;-71
2022/03/12 01:48:59;;;;;;;13.55;6.53;;;6.90;51.50;;;;;;5051106;28;20583;-70
2022/03/12 01:51:29;;;;;;;11.20;6.32;;;6.90;51.40;;;;;;5048357;28;20148;-72
2022/03/12 01:53:55;;;;;;;8.30;5.93;;;6.90;51.20;;;;;;5051865;28;20064;-71
2022/03/12 01:56:27;;;;;;;10.15;5.95;;;6.90;51.20;;;;;;5046058;28;20052;-71
2022/03/12 01:58:53;;;;;;;10.57;6.53;;;6.90;50.90;;;;;;5048754;28;20036;-71
2022/03/12 02:01:19;;;;;;;11.02;6.90;;;6.90;51.10;;;;;;5049927;28;20102;-71
2022/03/12 02:03:46;;;;;;;11.75;6.47;;;7.00;51.00;;;;;;5052059;28;20127;-71
2022/03/12 02:06:19;;;;;;;10.68;6.95;;;7.00;51.00;;;;;;5048912;28;20131;-71
2022/03/12 02:08:48;;;;;;;11.25;6.45;;;7.00;50.90;;;;;;5063219;28;20044;-71
2022/03/12 02:11:13;;;;;;;8.82;6.40;;;7.00;50.90;;;;;;5064746;28;20488;-71
2022/03/12 02:13:40;;;;;;;9.38;6.45;;;7.00;50.70;;;;;;5070325;28;20039;-71
2022/03/12 02:16:08;;;;;;;9.63;6.45;;;7.00;50.90;;;;;;5049096;28;20047;-71
2022/03/12 02:18:35;;;;;;;11.00;7.03;;;7.00;50.70;;;;;;5047146;28;20072;-72
2022/03/12 02:21:01;;;;;;;7.82;6.68;;;7.00;51.10;;;;;;5057840;28;20042;-72
2022/03/12 02:23:26;;;;;;;9.10;6.43;;;7.00;50.90;;;;;;5068077;28;20028;-72
2022/03/12 02:25:52;;;;;;;15.10;7.28;;;7.00;50.80;;;;;;5053133;28;20127;-72
2022/03/12 02:28:19;;;;;;;8.02;6.40;;;7.00;50.80;;;;;;5050354;28;20063;-72
2022/03/12 02:30:51;;;;;;;11.55;6.85;;;7.00;50.50;;;;;;5070114;28;20033;-72
2022/03/12 02:33:26;;;;;;;9.93;6.55;;;7.00;50.80;;;;;;5051650;28;20055;-72
2022/03/12 02:35:53;;;;;;;12.02;6.90;;;7.00;50.60;;;;;;5049813;28;20040;-72
2022/03/12 02:38:19;;;;;;;8.57;6.80;;;7.10;50.50;;;;;;5070813;28;20089;-72
2022/03/12 02:40:47;;;;;;;12.93;6.60;;;7.10;51.00;;;;;;5049260;28;20039;-72
2022/03/12 02:43:13;;;;;;;11.07;6.72;;;7.00;51.30;;;;;;5073161;28;20036;-72
2022/03/12 02:45:40;;;;;;;9.40;6.30;;;7.00;51.30;;;;;;5045895;28;20449;-71
2022/03/12 02:48:10;;;;;;;11.73;6.68;;;7.00;51.70;;;;;;5070613;28;20032;-71
2022/03/12 02:50:37;;;;;;;9.85;6.68;;;7.00;51.60;;;;;;5055752;28;20033;-71
2022/03/12 02:53:03;;;;;;;11.25;6.68;;;6.90;52.30;;;;;;5052589;28;20032;-71
2022/03/12 02:55:31;;;;;;;14.13;6.85;;;6.90;51.90;;;;;;5051061;28;20377;-71
2022/03/12 02:57:57;;;;;;;10.30;6.65;;;6.90;52.10;;;;;;5077904;28;20120;-71
2022/03/12 03:00:23;;;;;;;9.55;6.72;;;6.90;52.80;;;;;;5051209;28;20490;-72
2022/03/12 03:02:56;;;;;;;10.27;7.03;;;6.80;52.60;;;;;;5035614;28;20455;-72
2022/03/12 03:05:45;;;;;;;14.25;7.07;;;6.80;52.20;;;;;;5037946;28;20045;-72
2022/03/12 03:08:18;;;;;;;11.18;6.72;;;6.80;52.50;;;;;;5038228;28;20374;-72
2022/03/12 03:10:47;;;;;;;12.30;7.05;;;6.80;52.20;;;;;;5069334;28;20036;-72
2022/03/12 03:13:18;;;;;;;17.52;7.55;;;6.80;52.50;;;;;;5070057;28;20039;-72
2022/03/12 03:15:46;;;;;;;10.35;7.05;;;6.80;52.40;;;;;;5051704;28;20048;-71
2022/03/12 03:18:16;;;;;;;11.63;6.65;;;6.80;52.80;;;;;;5046375;28;20051;-71
2022/03/12 03:20:42;;;;;;;10.07;6.50;;;6.80;52.70;;;;;;5065000;28;20028;-71
2022/03/12 03:23:09;;;;;;;12.77;7.50;;;6.70;53.40;;;;;;5067306;28;20051;-71
2022/03/12 03:25:35;;;;;;;12.48;7.10;;;6.70;53.20;;;;;;5072034;28;20033;-71
2022/03/12 03:28:01;;;;;;;11.40;6.90;;;6.70;53.40;;;;;;5050412;28;20492;-71
2022/03/12 03:30:32;;;;;;;11.80;6.38;;;6.70;53.30;;;;;;5054706;28;20044;-71
2022/03/12 03:32:58;;;;;;;8.75;7.10;;;6.70;53.40;;;;;;5049561;28;20037;-72
2022/03/12 03:35:24;;;;;;;10.27;6.95;;;6.70;53.20;;;;;;5052958;28;20039;-72
2022/03/12 03:37:49;;;;;;;10.90;6.70;;;6.70;53.00;;;;;;5057537;28;20042;-72
2022/03/12 03:40:15;;;;;;;12.88;6.88;;;6.60;53.00;;;;;;5055155;28;20044;-72
2022/03/12 03:42:41;;;;;;;11.85;7.07;;;6.70;53.20;;;;;;5055947;28;20116;-72
2022/03/12 03:45:06;;;;;;;10.82;7.55;;;6.60;53.50;;;;;;5057723;28;20043;-72
2022/03/12 03:47:32;;;;;;;8.60;6.72;;;6.60;53.60;;;;;;5058422;28;20044;-72
2022/03/12 03:49:58;;;;;;;9.38;7.00;;;6.50;54.30;;;;;;5060460;28;20041;-72
2022/03/12 03:52:23;;;;;;;9.20;7.22;;;6.50;54.20;;;;;;5039944;28;20047;-72
2022/03/12 03:54:49;;;;;;;11.82;7.20;;;6.50;54.10;;;;;;5047599;28;20040;-72
2022/03/12 03:57:17;;;;;;;12.65;7.07;;;6.40;54.40;;;;;;5072797;28;20064;-72
2022/03/12 03:59:43;;;;;;;11.13;7.03;;;6.40;54.60;;;;;;5051188;28;20122;-72
2022/03/12 04:02:08;;;;;;;9.93;6.90;;;6.40;54.90;;;;;;5052742;28;20037;-72
2022/03/12 04:04:36;;;;;;;9.82;7.32;;;6.30;54.80;;;;;;5054151;28;20123;-72
2022/03/12 04:07:02;;;;;;;9.88;7.50;;;6.30;55.00;;;;;;5058743;28;20123;-72
2022/03/12 04:09:29;;;;;;;9.95;7.07;;;6.30;55.20;;;;;;5051182;28;20048;-72
2022/03/12 04:11:55;;;;;;;12.10;6.88;;;6.20;54.90;;;;;;5060790;28;20071;-72
2022/03/12 04:14:20;;;;;;;11.38;7.13;;;6.20;55.50;;;;;;5065529;28;20480;-72
2022/03/12 04:16:46;;;;;;;10.45;7.35;;;6.20;55.00;;;;;;5074487;28;20577;-71
2022/03/12 04:19:13;;;;;;;9.48;6.88;;;6.10;55.20;;;;;;5054641;28;20557;-71
2022/03/12 04:21:39;;;;;;;12.18;7.53;;;6.10;56.10;;;;;;5062128;28;20059;-71
2022/03/12 04:24:05;;;;;;;10.65;6.95;;;6.10;55.90;;;;;;5054425;28;20528;-71
2022/03/12 04:26:35;;;;;;;10.35;7.25;;;6.10;56.20;;;;;;5051183;28;20044;-71
2022/03/12 04:29:08;;;;;;;8.57;6.53;;;6.10;56.10;;;;;;5053602;28;20041;-71
2022/03/12 04:31:34;;;;;;;10.02;6.60;;;6.10;55.80;;;;;;5044083;28;20036;-71
2022/03/12 04:33:59;;;;;;;11.35;6.78;;;6.20;55.40;;;;;;5058259;28;20047;-71
2022/03/12 04:36:26;;;;;;;11.07;7.40;;;6.20;55.40;;;;;;5054041;28;20040;-71
2022/03/12 04:38:52;;;;;;;9.95;7.43;;;6.20;55.40;;;;;;5055106;28;20439;-71
2022/03/12 04:41:19;;;;;;;10.77;7.38;;;6.20;55.40;;;;;;5055689;28;20044;-71
2022/03/12 04:43:44;;;;;;;9.35;7.15;;;6.20;55.60;;;;;;5058201;28;20036;-71
2022/03/12 04:46:10;;;;;;;10.45;6.57;;;6.20;56.10;;;;;;5072808;28;20103;-71
2022/03/12 04:48:36;;;;;;;13.68;7.43;;;6.20;55.10;;;;;;5049488;28;20044;-71
2022/03/12 04:51:02;;;;;;;9.27;7.28;;;6.20;55.70;;;;;;5053853;28;20044;-71
2022/03/12 04:53:28;;;;;;;11.00;7.18;;;6.20;56.40;;;;;;5062325;28;20036;-71
2022/03/12 04:55:54;;;;;;;9.00;6.90;;;6.20;56.30;;;;;;5053070;28;20117;-71
2022/03/12 04:58:20;;;;;;;8.55;6.82;;;6.20;56.30;;;;;;5062891;28;20097;-71
2022/03/12 05:00:46;;;;;;;9.40;7.05;;;6.20;56.80;;;;;;5056100;28;20488;-71
2022/03/12 05:03:15;;;;;;;10.60;7.28;;;6.20;56.60;;;;;;5070704;28;20089;-71
2022/03/12 05:05:42;;;;;;;11.48;6.90;;;6.20;56.60;;;;;;5057458;28;20441;-71
2022/03/12 05:08:17;;;;;;;10.50;7.28;;;6.20;57.10;;;;;;5084407;28;20040;-71
2022/03/12 05:10:47;;;;;;;8.85;6.90;;;6.20;57.20;;;;;;5050001;28;20050;-71
2022/03/12 05:13:12;;;;;;;8.45;6.95;;;6.20;57.00;;;;;;5074940;28;20039;-71
2022/03/12 05:15:39;;;;;;;12.45;7.57;;;6.20;57.40;;;;;;5052759;28;20481;-71
2022/03/12 05:18:12;;;;;;;12.82;6.95;;;6.20;58.40;;;;;;5051399;28;20190;-71
2022/03/12 05:20:43;;;;;;;10.02;7.18;;;6.20;59.00;;;;;;5054328;28;20040;-71
2022/03/12 05:23:10;;;;;;;11.00;7.20;;;6.10;58.80;;;;;;5048896;28;20032;-71
2022/03/12 05:25:47;;;;;;;12.50;7.15;;;6.10;58.60;;;;;;5058351;28;20577;-71
2022/03/12 05:28:15;;;;;;;9.60;7.43;;;6.10;58.80;;;;;;5051875;28;20036;-71
2022/03/12 05:30:46;;;;;;;12.15;7.13;;;6.10;58.00;;;;;;5069731;28;20044;-71
2022/03/12 05:33:13;;;;;;;10.63;6.78;;;6.10;57.90;;;;;;5055100;28;20111;-71
2022/03/12 05:35:41;;;;;;;9.70;7.35;;;6.20;58.60;;;;;;5056535;28;20036;-71
2022/03/12 05:38:09;;;;;;;12.90;7.47;;;6.10;58.50;;;;;;5051581;28;20040;-71
2022/03/12 05:40:38;;;;;;;17.73;7.20;;;6.10;58.40;;;;;;5049585;28;20075;-71
2022/03/12 05:43:06;;;;;;;11.45;7.15;;;6.10;58.20;;;;;;5046992;28;20036;-71
2022/03/12 05:45:32;;;;;;;8.95;6.88;;;6.10;59.20;;;;;;5053480;28;20040;-70
2022/03/12 05:47:58;;;;;;;13.30;7.30;;;6.10;60.10;;;;;;5053485;28;20047;-70
2022/03/12 05:50:24;;;;;;;13.20;7.28;;;6.10;59.00;;;;;;5071877;28;20447;-70
2022/03/12 05:52:50;;;;;;;10.70;7.72;;;6.10;59.60;;;;;;5052838;28;20036;-70
2022/03/12 05:55:19;;;;;;;10.32;7.50;;;6.10;60.10;;;;;;5056812;28;20425;-70
2022/03/12 05:57:44;;;;;;;11.98;7.85;;;6.10;60.30;;;;;;5051069;28;20032;-70
2022/03/12 06:00:11;;;;;;;11.07;7.10;;;6.00;61.20;;;;;;5058125;28;20540;-71
2022/03/12 06:02:43;;;;;;;9.05;7.10;;;6.00;60.80;;;;;;5038381;28;20033;-71
2022/03/12 06:05:14;;;;;;;11.35;7.50;;;6.00;60.10;;;;;;5049138;28;20116;-71
2022/03/12 06:07:45;;;;;;;9.45;7.03;;;6.00;59.60;;;;;;5052139;28;20060;-71
2022/03/12 06:10:16;;;;;;;8.95;7.22;;;6.00;58.80;;;;;;5073342;28;20094;-71
2022/03/12 06:12:43;;;;;;;11.90;7.75;;;6.00;59.00;;;;;;5072049;28;20032;-71
2022/03/12 06:15:14;;;;;;;10.20;7.28;;;6.00;58.80;;;;;;5058746;28;20040;-71
2022/03/12 06:17:41;;;;;;;11.50;7.53;;;6.00;58.50;;;;;;5067395;28;20044;-71
2022/03/12 06:20:12;;;;;;;11.13;8.05;;;6.00;58.70;;;;;;5066199;28;20064;-71
2022/03/12 06:22:38;;;;;;;10.73;7.65;;;6.00;58.90;;;;;;5038361;28;20425;-71
2022/03/12 06:25:06;;;;;;;12.27;7.85;;;6.00;59.40;;;;;;5050162;28;20044;-71
2022/03/12 06:27:32;;;;;;;10.68;7.35;;;6.00;59.10;;;;;;5047867;28;20490;-71
2022/03/12 06:29:58;;;;;;;9.05;7.25;;;6.00;59.40;;;;;;5073611;28;20036;-71
2022/03/12 06:32:24;;;;;;;11.45;7.90;;;6.00;59.60;;;;;;5052357;28;20166;-71
2022/03/12 06:34:49;;;;;;;12.95;8.20;;;6.00;59.50;;;;;;5073689;28;20473;-71
2022/03/12 06:37:15;;;;;;;12.95;7.43;;;6.00;59.60;;;;;;5066485;28;20491;-71
2022/03/12 06:39:41;;;;;;;13.10;7.47;;;6.00;60.40;;;;;;5056107;28;20389;-71
2022/03/12 06:42:07;;;;;;;10.77;7.00;;;6.00;60.00;;;;;;5048434;28;20432;-71
2022/03/12 06:44:36;;;;;;;14.50;8.18;;;6.10;59.90;;;;;;5053144;28;20048;-71
2022/03/12 06:47:07;;;;;;;13.57;7.53;;;6.10;60.10;;;;;;5054086;28;20094;-71
2022/03/12 06:49:32;;;;;;;10.23;6.95;;;6.10;60.30;;;;;;5070217;28;20051;-71
2022/03/12 06:51:58;;;;;;;16.20;7.75;;;6.10;60.30;;;;;;5055371;28;20044;-70
2022/03/12 06:54:23;;;;;;;9.98;7.45;;;6.20;59.80;;;;;;5051538;28;20550;-70
2022/03/12 06:56:49;;;;;;;12.05;7.95;;;6.20;59.80;;;;;;5049082;28;20047;-70
2022/03/12 06:59:15;;;;;;;11.32;7.72;;;6.20;59.80;;;;;;5070479;28;20411;-70
2022/03/12 07:01:40;;;;;;;12.68;8.20;;;6.30;59.90;;;;;;5045694;28;20040;-70
2022/03/12 07:04:06;;;;;;;12.13;7.35;;;6.30;60.80;;;;;;5046569;28;20033;-70
2022/03/12 07:06:33;;;;;;;11.88;7.90;;;6.20;60.80;;;;;;5054692;28;20651;-69
2022/03/12 07:09:00;;;;;;;11.57;8.20;;;6.20;61.40;;;;;;5043708;28;20090;-70
2022/03/12 07:11:26;;;;;;;12.45;7.78;;;6.20;61.90;;;;;;5056439;28;20037;-69
2022/03/12 07:13:51;;;;;;;11.40;7.65;;;6.10;62.20;;;;;;5051952;28;20040;-72
2022/03/12 07:16:17;;;;;;;10.30;8.15;;;6.10;63.30;;;;;;5042386;28;20071;-70
2022/03/12 07:18:43;;;;;;;12.52;8.35;;;6.00;63.90;;;;;;5059185;28;20040;-71
2022/03/12 07:21:09;;;;;;;11.80;8.60;;;6.10;64.20;;;;;;5072998;28;20078;-71
2022/03/12 07:23:34;;;;;;;13.50;7.93;;;6.10;65.40;;;;;;5072765;28;20115;-76
2022/03/12 07:26:00;;;;;;;14.55;7.53;;;6.00;66.30;;;;;;5022600;28;20465;-76
2022/03/12 07:28:27;;;;;;;13.80;7.90;;;6.00;66.50;;;;;;5060580;28;20397;-77
2022/03/12 07:31:15;;;;;;;10.50;7.90;;;6.00;66.60;;;;;;5045994;28;20064;-76
2022/03/12 07:49:59;;;;;;;11.00;8.20;;;6.50;66.20;;;;;;4952283;28;20134;-75
2022/03/12 07:52:24;;;;;;;11.27;8.23;;;6.70;66.10;;;;;;4956281;28;20165;-76
2022/03/12 07:54:50;;;;;;;10.18;8.20;;;6.80;65.60;;;;;;5005902;28;20044;-76
2022/03/12 07:57:16;;;;;;;20.08;9.05;;;6.80;65.90;;;;;;5054881;28;20041;-77
2022/03/12 07:59:44;;;;;;;16.10;9.05;;;6.90;66.00;;;;;;5050907;28;20051;-75
2022/03/12 08:05:54;;;;;;;12.00;8.55;;;7.20;66.60;;;;;;5064569;28;20043;-73
2022/03/12 08:08:20;;;;;;;13.40;8.48;;;7.40;64.70;;;;;;5041785;28;20509;-71
2022/03/12 08:13:31;;;;;;;12.15;8.23;;;7.70;65.90;;;;;;5037426;28;20033;-72
2022/03/12 08:15:58;;;;;;;13.95;8.80;;;7.80;65.10;;;;;;5024331;28;20086;-71
2022/03/12 08:18:24;;;;;;;12.43;8.52;;;7.90;64.70;;;;;;5028133;28;20040;-71
2022/03/12 08:20:50;;;;;;;11.82;8.65;;;8.00;64.50;;;;;;5056238;28;20128;-71
2022/03/12 08:23:16;;;;;;;14.38;8.75;;;8.10;64.80;;;;;;5072400;28;20082;-71
2022/03/12 08:25:42;;;;;;;11.32;8.90;;;8.20;64.70;;;;;;5070856;28;20474;-71
2022/03/12 08:28:09;;;;;;;13.75;9.35;;;8.40;64.80;;;;;;5052708;28;20052;-70
2022/03/12 08:30:35;;;;;;;11.80;8.95;;;8.60;64.70;;;;;;5031839;28;20074;-70
2022/03/12 08:33:03;;;;;;;13.05;9.55;;;8.70;65.40;;;;;;5033889;28;20044;-70
2022/03/12 08:35:29;;;;;;;15.77;9.57;;;8.80;65.40;;;;;;5063830;28;20068;-70
2022/03/12 08:37:55;;;;;;;14.73;9.50;;;9.00;65.00;;;;;;5041557;28;20036;-71
2022/03/12 08:40:21;;;;;;;15.70;9.60;;;9.10;64.00;;;;;;5058594;28;20045;-71
2022/03/12 08:42:47;;;;;;;11.93;8.95;;;9.30;64.70;;;;;;5024139;28;20037;-70
2022/03/12 08:45:12;;;;;;;12.50;9.20;;;9.40;63.90;;;;;;5055840;28;20135;-72
2022/03/12 08:47:40;;;;;;;13.30;9.73;;;9.50;63.30;;;;;;5054800;28;20162;-72
2022/03/12 08:50:08;;;;;;;16.73;9.60;;;9.70;63.20;;;;;;5054695;28;20124;-72
2022/03/12 08:52:35;;;;;;;12.52;9.65;;;9.80;64.20;;;;;;5072467;28;20039;-72
2022/03/12 08:55:01;;;;;;;12.40;9.27;;;9.90;64.70;;;;;;5062004;28;20062;-72
2022/03/12 08:57:26;;;;;;;14.40;9.48;;;10.00;62.80;;;;;;5054946;28;20040;-72
2022/03/12 08:59:52;;;;;;;11.18;9.38;;;10.10;63.10;;;;;;5052438;28;20120;-72
2022/03/12 09:02:18;;;;;;;12.40;9.35;;;10.20;63.10;;;;;;5064990;28;20511;-72
2022/03/12 09:04:45;;;;;;;14.32;9.25;;;10.30;64.30;;;;;;5072327;28;20032;-72
2022/03/12 09:07:10;;;;;;;14.25;9.60;;;10.50;64.70;;;;;;5054462;28;20036;-72
2022/03/12 09:09:36;;;;;;;12.93;9.00;;;10.60;64.50;;;;;;5058576;28;20517;-72
2022/03/12 09:12:03;;;;;;;12.70;9.73;;;10.70;64.50;;;;;;5054801;28;20048;-72
2022/03/12 09:14:29;;;;;;;14.13;9.38;;;10.80;63.90;;;;;;5037673;28;20532;-72
2022/03/12 09:16:55;;;;;;;14.88;9.48;;;10.80;65.30;;;;;;5051699;28;20041;-72
2022/03/12 09:19:20;;;;;;;12.00;9.82;;;11.00;64.90;;;;;;5045260;28;20047;-72
2022/03/12 09:21:46;;;;;;;15.02;9.93;;;11.10;66.00;;;;;;5054100;28;20033;-72
2022/03/12 09:24:12;;;;;;;12.15;9.57;;;11.20;65.70;;;;;;5053926;28;20495;-72
2022/03/12 09:26:38;;;;;;;13.52;9.45;;;11.20;64.50;;;;;;5055242;28;20032;-72
2022/03/12 09:29:03;;;;;;;15.02;9.68;;;11.30;64.40;;;;;;5053945;28;20063;-72
2022/03/12 09:31:29;;;;;;;10.77;9.63;;;11.40;64.00;;;;;;5054251;28;20543;-72
2022/03/12 09:33:55;;;;;;;12.95;9.80;;;11.40;64.60;;;;;;5069579;28;20067;-72
2022/03/12 09:36:20;;;;;;;16.73;9.65;;;11.50;65.50;;;;;;5053624;28;20051;-72
2022/03/12 09:38:46;;;;;;;13.85;9.98;;;11.60;64.80;;;;;;5048159;28;20035;-72
2022/03/12 09:41:12;;;;;;;14.05;10.40;;;11.70;66.70;;;;;;5054033;28;20048;-73
2022/03/12 09:43:37;;;;;;;13.15;9.65;;;11.80;66.90;;;;;;5077124;28;20033;-73
2022/03/12 09:46:03;;;;;;;15.00;10.10;;;11.80;66.10;;;;;;5046087;28;20060;-72
2022/03/12 09:48:29;;;;;;;14.18;9.82;;;11.90;67.50;;;;;;5054073;28;20047;-72
2022/03/12 09:50:55;;;;;;;12.88;9.40;;;11.90;66.50;;;;;;5052284;28;20032;-72
2022/03/12 09:53:21;;;;;;;12.88;9.70;;;12.00;67.30;;;;;;5050933;28;20561;-72
2022/03/12 09:55:47;;;;;;;14.95;9.75;;;12.10;65.60;;;;;;5053541;28;20489;-72
2022/03/12 09:58:13;;;;;;;11.95;10.15;;;12.20;67.10;;;;;;5053939;28;20048;-72
2022/03/12 10:00:39;;;;;;;12.93;10.07;;;12.30;66.10;;;;;;5054041;28;20032;-72
2022/03/12 10:03:05;;;;;;;11.85;10.02;;;12.40;66.40;;;;;;5053226;28;20111;-72
2022/03/12 10:05:31;;;;;;;13.00;9.77;;;12.40;65.90;;;;;;5053409;28;20120;-72
2022/03/12 10:07:57;;;;;;;14.27;9.93;;;12.40;67.60;;;;;;5051100;28;20048;-72
2022/03/12 10:10:24;;;;;;;12.20;9.38;;;12.50;68.10;;;;;;5053558;28;20048;-72
2022/03/12 10:12:50;;;;;;;15.52;9.52;;;12.60;70.70;;;;;;5053219;28;20504;-72
2022/03/12 10:15:18;;;;;;;13.02;9.60;;;12.70;71.40;;;;;;5053179;28;20528;-72
2022/03/12 10:17:47;;;;;;;14.00;8.35;;;12.70;73.70;;;;;;5058546;28;20059;-72
2022/03/12 10:20:13;;;;;;;14.10;9.02;;;12.80;75.20;;;;;;5064644;28;20040;-72
2022/03/12 10:22:39;;;;;;;11.70;9.15;;;12.90;74.60;;;;;;5052859;28;20032;-72
2022/03/12 10:25:06;;;;;;;11.07;8.43;;;13.00;77.50;;;;;;5052653;28;20504;-72
2022/03/12 10:27:33;;;;;;;12.07;9.18;;;13.10;78.30;;;;;;5053438;28;20054;-72
2022/03/12 10:29:59;;;;;;;10.40;8.23;;;13.10;81.10;;;;;;5071255;28;20051;-72
2022/03/12 10:32:31;;;;;;;10.82;8.27;;;13.20;79.60;;;;;;5052969;28;20051;-72
2022/03/12 10:35:00;;;;;;;16.45;8.25;;;13.30;82.70;;;;;;5053629;28;20036;-72
2022/03/12 10:37:29;;;;;;;14.05;8.30;;;13.40;83.70;;;;;;5050362;28;20044;-72
2022/03/12 10:40:06;;;;;;;9.80;8.30;;;13.50;86.10;;;;;;5051196;28;20044;-72
2022/03/12 10:42:33;;;;;;;9.80;7.35;;;13.60;86.10;;;;;;5049403;28;20068;-72
2022/03/12 10:45:10;;;;;;;10.23;6.50;;;13.70;87.80;;;;;;5045479;28;20037;-72
2022/03/12 10:47:45;;;;;;;8.10;6.38;;;13.90;87.90;;;;;;5052391;28;20047;-72
2022/03/12 10:50:22;;;;;;;9.80;6.90;;;13.90;89.60;;;;;;5057226;28;20468;-72
2022/03/12 10:52:50;;;;;;;9.77;7.35;;;13.90;88.10;;;;;;5070466;28;20036;-72
2022/03/12 10:55:24;;;;;;;9.90;7.00;;;14.00;90.10;;;;;;5057095;28;20064;-72
2022/03/12 10:58:13;;;;;;;10.80;7.53;;;13.90;91.00;;;;;;5055273;28;20055;-72
2022/03/12 11:00:46;;;;;;;9.80;6.93;;;14.00;90.60;;;;;;5054786;28;20482;-72
2022/03/12 11:03:15;;;;;;;10.43;7.10;;;14.10;90.60;;;;;;5056616;28;20059;-72
2022/03/12 11:05:43;;;;;;;11.02;7.38;;;14.20;90.50;;;;;;5057273;28;20082;-72
2022/03/12 11:08:15;;;;;;;9.35;7.38;;;14.30;87.40;;;;;;5075276;28;20032;-72
2022/03/12 11:10:46;;;;;;;;;;;14.00;86.40;;;;;;5057293;28;20040;-72
2022/03/12 11:13:40;;;;;;;10.65;7.40;;;14.10;90.00;;;;;;5040019;28;19916;-73
2022/03/12 11:16:14;;;;;;;10.18;7.35;;;14.10;90.20;;;;;;5053581;28;20049;-73
2022/03/12 11:18:52;;;;;;;10.80;6.72;;;14.20;90.60;;;;;;5056762;28;20044;-73
2022/03/12 11:21:27;;;;;;;10.15;7.30;;;14.30;89.20;;;;;;5056262;28;20036;-73
2022/03/12 11:23:54;;;;;;;8.93;7.47;;;14.30;89.70;;;;;;5056443;28;20041;-73
2022/03/12 11:26:20;;;;;;;12.13;7.85;;;14.50;89.70;;;;;;5054373;28;20040;-73
2022/03/12 11:28:59;;;;;;;10.65;7.88;;;14.60;85.30;;;;;;5051673;28;20132;-72
2022/03/12 11:31:46;;;;;;;10.85;7.93;;;14.60;86.10;;;;;;5055968;28;20029;-73
2022/03/12 11:34:20;;;;;;;10.32;7.72;;;14.60;79.90;;;;;;5056088;28;20041;-73
2022/03/12 11:36:57;;;;;;;10.27;7.45;;;14.50;81.10;;;;;;5050190;28;20037;-72
2022/03/12 11:39:28;;;;;;;9.00;8.07;;;14.50;81.30;;;;;;5056096;28;20028;-72
2022/03/12 11:42:11;;;;;;;8.70;7.53;;;14.50;81.40;;;;;;5074769;28;20068;-72
2022/03/12 11:44:47;;;;;;;9.00;7.25;;;14.70;82.70;;;;;;5056014;28;20036;-73
2022/03/12 11:47:24;;;;;;;8.30;7.40;;;14.90;81.40;;;;;;5073904;28;20036;-72
2022/03/12 11:49:51;;;;;;;9.57;7.43;;;15.20;81.00;;;;;;5055812;28;20577;-72
2022/03/12 11:52:19;;;;;;;10.43;7.75;;;15.30;78.60;;;;;;5056743;28;20073;-73
2022/03/12 11:54:46;;;;;;;8.38;7.13;;;15.30;77.90;;;;;;5055227;28;20041;-73
2022/03/12 11:57:34;;;;;;;9.93;7.68;;;15.40;77.00;;;;;;5039188;28;20048;-73
2022/03/12 12:00:02;;;;;;;12.50;7.85;;;15.40;76.60;;;;;;5035878;28;20036;-73
2022/03/12 12:02:35;;;;;;;13.10;7.65;;;15.40;77.10;;;;;;5055536;28;20039;-73
2022/03/12 12:05:04;;;;;;;10.07;7.38;;;15.50;77.80;;;;;;5053905;28;20037;-73
2022/03/12 12:07:36;;;;;;;8.73;7.68;;;15.50;76.10;;;;;;5073643;28;20032;-72
2022/03/12 12:10:03;;;;;;;9.38;7.72;;;15.60;76.60;;;;;;5048523;28;20377;-73
2022/03/12 12:12:30;;;;;;;8.43;6.68;;;15.50;75.20;;;;;;5054769;28;20052;-73
2022/03/12 12:14:56;;;;;;;8.63;7.00;;;15.30;73.20;;;;;;5056313;28;20093;-73
2022/03/12 12:17:22;;;;;;;9.90;7.05;;;15.30;75.00;;;;;;5055259;28;20041;-71
2022/03/12 12:19:48;;;;;;;9.65;7.32;;;15.20;75.10;;;;;;5038794;28;20090;-71
2022/03/12 12:22:14;;;;;;;9.50;7.18;;;15.20;76.30;;;;;;5025032;28;20074;-70
2022/03/12 12:24:42;;;;;;;7.82;7.03;;;15.30;75.80;;;;;;5036848;28;20071;-71
2022/03/12 12:27:14;;;;;;;14.45;8.00;;;15.30;76.30;;;;;;5041369;28;20041;-71
2022/03/12 12:29:43;;;;;;;9.43;7.57;;;15.40;75.90;;;;;;5066633;28;20046;-71
2022/03/12 12:32:10;;;;;;;11.00;7.10;;;15.40;74.60;;;;;;5055278;28;20036;-71
2022/03/12 12:34:37;;;;;;;9.52;7.00;;;15.70;76.90;;;;;;5042658;28;20041;-71
2022/03/12 12:37:04;;;;;;;9.05;7.10;;;15.60;71.10;;;;;;5053963;28;20044;-71
2022/03/12 12:39:30;;;;;;;9.10;6.47;;;15.60;71.60;;;;;;5055857;28;20028;-72
2022/03/12 12:42:05;;;;;;;7.90;6.78;;;15.70;70.80;;;;;;5054298;28;20036;-76
2022/03/12 12:44:39;;;;;;;10.85;6.85;;;15.50;71.60;;;;;;5046880;28;20107;-72
2022/03/12 12:47:07;;;;;;;8.77;6.80;;;15.40;74.10;;;;;;5053139;28;20045;-72
2022/03/12 12:49:40;;;;;;;11.45;6.68;;;15.40;73.80;;;;;;5069904;28;20092;-72
2022/03/12 12:52:06;;;;;;;9.18;6.10;;;15.40;73.90;;;;;;5060129;28;20021;-71
2022/03/12 12:54:58;;;;;;;9.07;6.60;;;15.40;73.50;;;;;;5060579;28;20037;-71
2022/03/12 12:57:41;;;;;;;8.97;5.70;;;15.40;70.30;;;;;;5067373;28;20036;-71
2022/03/12 13:00:21;;;;;;;7.22;5.50;;;15.40;70.80;;;;;;5049961;28;20082;-72
2022/03/12 13:02:52;;;;;;;9.50;6.10;;;15.50;71.30;;;;;;5071882;28;20079;-72
2022/03/12 13:05:18;;;;;;;10.65;5.93;;;15.60;71.60;;;;;;5064844;28;20037;-72
2022/03/12 13:08:00;;;;;;;6.75;5.70;;;15.70;71.60;;;;;;5054453;28;20090;-73
2022/03/12 13:10:28;;;;;;;6.85;5.90;;;15.90;69.20;;;;;;5050853;28;20047;-72
2022/03/12 13:13:14;;;;;;;8.88;6.03;;;16.00;69.30;;;;;;5049466;28;20040;-71
2022/03/12 13:15:42;;;;;;;8.30;6.00;;;16.10;68.60;;;;;;5042761;28;20048;-72